Time;durP1;ratioP1;P1;durP2;ratioP2;P2;SDS_P1;SDS_P2;PMS_P1;PMS_P2;Temp;Humidity;BMP_temperature;BMP_pressure;BME280_temperature;BME280_humidity;BME280_pressure;Samples;Min_cycle;Max_cycle;Signal;HPM_P1;HPM_P2
2023/10/21 00:00:58;;;;;;;2.47;0.77;;;5.80;99.90;;;;;;5003245;28;20061;-74
2023/10/21 00:03:24;;;;;;;1.95;0.75;;;5.80;99.90;;;;;;5006231;28;20088;-73
2023/10/21 00:05:50;;;;;;;0.77;0.75;;;5.80;99.90;;;;;;5009059;28;20130;-72
2023/10/21 00:08:15;;;;;;;3.25;0.88;;;5.80;99.90;;;;;;5006709;28;20120;-73
2023/10/21 00:10:41;;;;;;;1.80;1.00;;;5.80;99.90;;;;;;5002120;28;20137;-73
2023/10/21 00:13:06;;;;;;;3.58;1.00;;;5.90;99.90;;;;;;5005919;28;20471;-73
2023/10/21 00:15:34;;;;;;;1.70;0.80;;;5.90;99.90;;;;;;5014027;28;20037;-73
2023/10/21 00:17:59;;;;;;;3.30;1.15;;;5.90;99.90;;;;;;5009128;28;20026;-74
2023/10/21 00:20:25;;;;;;;2.47;1.13;;;5.90;99.90;;;;;;5008715;28;20034;-73
2023/10/21 00:22:50;;;;;;;2.08;1.13;;;5.90;99.90;;;;;;5009883;28;20037;-73
2023/10/21 00:25:16;;;;;;;3.13;1.40;;;5.90;99.90;;;;;;5012264;28;20507;-73
2023/10/21 00:27:41;;;;;;;2.22;1.17;;;5.90;99.90;;;;;;5004890;28;20042;-76
2023/10/21 00:30:07;;;;;;;3.03;1.50;;;6.00;99.90;;;;;;5008095;28;20121;-72
2023/10/21 00:32:32;;;;;;;4.18;1.58;;;5.90;99.90;;;;;;5006852;28;20038;-73
2023/10/21 00:34:58;;;;;;;4.32;1.60;;;6.00;99.90;;;;;;5010853;28;20046;-73
2023/10/21 00:37:23;;;;;;;4.28;2.08;;;6.00;99.90;;;;;;4998771;28;20031;-75
2023/10/21 00:39:49;;;;;;;5.03;1.35;;;6.00;99.90;;;;;;5002625;28;20037;-73
2023/10/21 00:42:14;;;;;;;3.63;1.73;;;6.00;99.90;;;;;;5004681;28;20045;-73
2023/10/21 00:44:40;;;;;;;1.92;1.30;;;6.00;99.90;;;;;;5012030;28;20038;-72
2023/10/21 00:47:05;;;;;;;2.45;1.30;;;6.00;99.90;;;;;;5003915;28;20491;-72
2023/10/21 00:49:31;;;;;;;3.75;1.25;;;6.10;99.90;;;;;;5008102;28;20104;-72
2023/10/21 00:51:58;;;;;;;2.63;1.48;;;6.00;99.90;;;;;;5003486;28;20034;-73
2023/10/21 00:54:27;;;;;;;2.10;1.25;;;6.10;99.90;;;;;;5004545;28;20284;-73
2023/10/21 00:56:55;;;;;;;1.92;1.42;;;6.10;99.90;;;;;;5000910;28;20034;-72
2023/10/21 00:59:23;;;;;;;2.80;1.55;;;6.10;99.90;;;;;;5026251;28;20069;-72
2023/10/21 01:01:48;;;;;;;3.60;1.48;;;6.10;99.90;;;;;;5010007;28;20530;-72
2023/10/21 01:04:14;;;;;;;3.40;1.60;;;6.10;99.90;;;;;;5012941;28;20068;-72
2023/10/21 01:06:40;;;;;;;2.10;1.08;;;6.10;99.90;;;;;;5010594;28;20038;-75
2023/10/21 01:09:06;;;;;;;4.07;1.55;;;6.10;99.90;;;;;;5011040;28;20477;-74
2023/10/21 01:11:32;;;;;;;2.45;1.65;;;6.10;99.90;;;;;;5009761;28;20034;-73
2023/10/21 01:13:57;;;;;;;2.50;1.50;;;6.10;99.90;;;;;;5010860;28;20418;-73
2023/10/21 01:16:23;;;;;;;5.43;2.15;;;6.10;99.90;;;;;;5003874;28;20132;-74
2023/10/21 01:18:48;;;;;;;3.25;1.35;;;6.10;99.90;;;;;;5009304;28;20457;-72
2023/10/21 01:21:14;;;;;;;3.70;2.00;;;6.20;99.90;;;;;;5006657;28;20026;-73
2023/10/21 01:23:39;;;;;;;3.88;1.77;;;6.20;99.90;;;;;;5008733;28;20108;-73
2023/10/21 01:26:05;;;;;;;5.10;2.08;;;6.20;99.90;;;;;;5005685;28;20371;-73
2023/10/21 01:28:32;;;;;;;2.97;1.73;;;6.20;99.90;;;;;;5009186;28;20065;-73
2023/10/21 01:30:58;;;;;;;3.15;1.30;;;6.20;99.90;;;;;;5005627;28;20538;-72
2023/10/21 01:33:24;;;;;;;3.40;1.25;;;6.20;99.90;;;;;;5005432;28;20037;-73
2023/10/21 01:35:49;;;;;;;2.70;1.27;;;6.30;99.90;;;;;;5003251;28;20430;-73
2023/10/21 01:38:15;;;;;;;4.57;1.85;;;6.30;99.90;;;;;;5011148;28;20034;-72
2023/10/21 01:40:40;;;;;;;2.55;1.45;;;6.20;99.90;;;;;;5002413;28;20029;-74
2023/10/21 01:43:06;;;;;;;3.70;1.75;;;6.30;99.90;;;;;;5005864;28;20030;-72
2023/10/21 01:45:34;;;;;;;2.90;1.83;;;6.30;99.90;;;;;;5008321;28;20132;-72
2023/10/21 01:48:00;;;;;;;4.38;1.77;;;6.30;99.90;;;;;;5008535;28;20064;-73
2023/10/21 01:50:25;;;;;;;3.53;1.88;;;6.30;99.90;;;;;;5010428;28;20042;-72
2023/10/21 01:52:51;;;;;;;2.47;1.20;;;6.30;99.90;;;;;;5006689;28;20038;-72
2023/10/21 01:55:16;;;;;;;3.45;1.98;;;6.30;99.90;;;;;;5003007;28;20045;-73
2023/10/21 01:57:42;;;;;;;4.28;1.40;;;6.30;99.90;;;;;;5002781;28;20106;-73
2023/10/21 02:00:11;;;;;;;3.47;1.65;;;6.30;99.90;;;;;;5005302;28;20027;-72
2023/10/21 02:02:37;;;;;;;3.10;1.10;;;6.30;99.90;;;;;;5010792;28;20351;-72
2023/10/21 02:05:04;;;;;;;2.08;1.17;;;6.30;99.90;;;;;;5008763;28;20076;-72
2023/10/21 02:07:31;;;;;;;4.18;1.85;;;6.30;99.90;;;;;;5005439;28;20030;-72
2023/10/21 02:09:56;;;;;;;2.65;1.55;;;6.40;99.90;;;;;;4998399;28;20491;-73
2023/10/21 02:12:22;;;;;;;3.35;1.73;;;6.30;99.90;;;;;;5007444;28;20115;-73
2023/10/21 02:14:47;;;;;;;3.65;1.58;;;6.30;99.90;;;;;;5011065;28;20034;-74
2023/10/21 02:17:12;;;;;;;4.70;2.00;;;6.40;99.90;;;;;;5009621;28;20034;-73
2023/10/21 02:19:38;;;;;;;3.50;1.52;;;6.40;99.90;;;;;;5010147;28;20042;-72
2023/10/21 02:22:03;;;;;;;3.38;1.70;;;6.40;99.90;;;;;;5000602;28;20103;-72
2023/10/21 02:24:34;;;;;;;3.30;1.88;;;6.40;99.90;;;;;;5005564;28;20033;-75
2023/10/21 02:26:59;;;;;;;3.90;1.63;;;6.40;99.90;;;;;;5000277;28;20034;-72
2023/10/21 02:29:25;;;;;;;3.55;1.20;;;6.40;99.90;;;;;;5000381;28;20035;-73
2023/10/21 02:31:50;;;;;;;4.22;1.48;;;6.40;99.90;;;;;;5001137;28;20100;-73
2023/10/21 02:34:15;;;;;;;2.95;1.40;;;6.40;99.90;;;;;;4999162;28;20030;-73
2023/10/21 02:36:41;;;;;;;3.58;1.45;;;6.50;99.90;;;;;;4998423;28;20443;-73
2023/10/21 02:39:07;;;;;;;3.03;1.35;;;6.50;99.90;;;;;;5001293;28;20377;-72
2023/10/21 02:41:33;;;;;;;4.05;1.75;;;6.50;99.90;;;;;;4993535;28;20029;-72
2023/10/21 02:43:59;;;;;;;3.72;1.60;;;6.50;99.90;;;;;;4999473;28;20406;-74
2023/10/21 02:46:24;;;;;;;2.92;1.58;;;6.50;99.90;;;;;;4995347;28;20030;-74
2023/10/21 02:48:49;;;;;;;4.00;1.88;;;6.50;99.90;;;;;;4994325;28;20374;-72
2023/10/21 02:51:17;;;;;;;3.88;2.03;;;6.50;99.90;;;;;;4995983;28;20049;-74
2023/10/21 02:53:44;;;;;;;5.57;2.10;;;6.50;99.90;;;;;;5002471;28;20034;-72
2023/10/21 02:56:10;;;;;;;3.20;1.48;;;6.50;99.90;;;;;;5004309;28;20471;-72
2023/10/21 02:58:36;;;;;;;3.83;1.50;;;6.50;99.90;;;;;;4999898;28;20036;-72
2023/10/21 03:01:15;;;;;;;3.53;1.80;;;6.50;99.90;;;;;;5011028;28;20096;-73
2023/10/21 03:03:41;;;;;;;3.33;1.45;;;6.50;99.90;;;;;;5002959;28;20037;-72
2023/10/21 03:06:08;;;;;;;3.83;1.40;;;6.50;99.90;;;;;;5012401;28;20060;-72
2023/10/21 03:08:37;;;;;;;4.20;2.10;;;6.60;99.90;;;;;;5007061;28;20022;-72
2023/10/21 03:11:04;;;;;;;4.45;1.77;;;6.60;99.90;;;;;;5017776;28;20038;-72
2023/10/21 03:13:33;;;;;;;4.82;2.10;;;6.60;99.90;;;;;;4998387;28;20398;-72
2023/10/21 03:15:59;;;;;;;4.35;2.10;;;6.60;99.90;;;;;;5001343;28;20437;-73
2023/10/21 03:18:25;;;;;;;4.30;1.75;;;6.60;99.90;;;;;;5009532;28;20088;-72
2023/10/21 03:20:52;;;;;;;4.43;1.92;;;6.60;99.90;;;;;;5009524;28;20124;-73
2023/10/21 03:23:18;;;;;;;3.22;1.60;;;6.60;99.90;;;;;;5008203;28;20026;-72
2023/10/21 03:25:53;;;;;;;2.85;1.63;;;6.60;99.90;;;;;;5010171;28;20077;-73
2023/10/21 03:28:18;;;;;;;3.38;1.63;;;6.70;99.90;;;;;;5004870;28;20034;-72
2023/10/21 03:30:46;;;;;;;4.28;1.63;;;6.70;99.90;;;;;;5004595;28;20038;-73
2023/10/21 03:33:12;;;;;;;4.93;1.95;;;6.70;99.90;;;;;;5005019;28;20041;-72
2023/10/21 03:35:37;;;;;;;4.85;2.17;;;6.70;99.90;;;;;;5009290;28;20033;-72
2023/10/21 03:38:03;;;;;;;3.85;1.65;;;6.70;99.90;;;;;;5001802;28;20134;-73
2023/10/21 03:40:29;;;;;;;1.48;0.88;;;6.70;99.90;;;;;;4997750;28;20479;-73
2023/10/21 03:42:54;;;;;;;3.47;1.77;;;6.70;99.90;;;;;;5002537;28;20088;-73
2023/10/21 03:45:20;;;;;;;3.42;1.80;;;6.70;99.90;;;;;;5008602;28;20041;-73
2023/10/21 03:47:45;;;;;;;5.32;1.90;;;6.70;99.90;;;;;;4999361;28;20042;-73
2023/10/21 03:50:11;;;;;;;4.45;1.73;;;6.80;99.90;;;;;;5007149;28;20042;-73
2023/10/21 03:52:39;;;;;;;5.22;1.83;;;6.80;99.90;;;;;;5009547;28;20030;-73
2023/10/21 03:55:05;;;;;;;3.47;1.73;;;6.80;99.90;;;;;;5010030;28;20030;-73
2023/10/21 03:57:31;;;;;;;4.22;1.65;;;6.80;99.90;;;;;;5021178;28;20470;-73
2023/10/21 03:59:58;;;;;;;4.55;1.60;;;6.80;99.90;;;;;;5001074;28;20474;-75
2023/10/21 04:02:23;;;;;;;2.72;1.42;;;6.80;99.90;;;;;;4998963;28;20528;-73
2023/10/21 04:04:49;;;;;;;5.05;1.90;;;6.80;99.90;;;;;;4996487;28;20030;-74
2023/10/21 04:07:14;;;;;;;2.47;1.35;;;6.80;99.90;;;;;;5006398;28;20506;-72
2023/10/21 04:09:40;;;;;;;4.38;1.80;;;6.80;99.90;;;;;;5002739;28;20112;-72
2023/10/21 04:12:06;;;;;;;4.22;1.88;;;6.80;99.90;;;;;;5003560;28;20034;-72
2023/10/21 04:14:32;;;;;;;3.03;1.48;;;6.90;99.90;;;;;;5003593;28;20116;-73
2023/10/21 04:16:57;;;;;;;7.03;1.83;;;6.90;99.90;;;;;;5009814;28;20034;-74
2023/10/21 04:19:23;;;;;;;3.17;1.42;;;6.80;99.90;;;;;;5000190;28;20027;-73
2023/10/21 04:21:49;;;;;;;5.95;2.42;;;6.90;99.90;;;;;;5004539;28;20037;-73
2023/10/21 04:24:15;;;;;;;4.40;2.20;;;6.90;99.90;;;;;;5008525;28;20434;-73
2023/10/21 04:26:40;;;;;;;4.00;1.88;;;6.90;99.90;;;;;;4994565;28;20137;-69
2023/10/21 04:29:06;;;;;;;4.07;1.67;;;6.90;99.90;;;;;;5008883;28;20124;-69
2023/10/21 04:31:39;;;;;;;4.80;2.00;;;6.90;99.90;;;;;;5009933;28;20034;-69
2023/10/21 04:34:04;;;;;;;3.53;1.73;;;6.90;99.90;;;;;;5002100;28;20040;-69
2023/10/21 04:36:30;;;;;;;3.67;1.50;;;6.90;99.90;;;;;;4999405;28;20488;-69
2023/10/21 04:38:55;;;;;;;4.25;1.70;;;6.90;99.90;;;;;;5001394;28;20032;-69
2023/10/21 04:41:21;;;;;;;3.13;1.55;;;7.00;99.90;;;;;;5004054;28;20533;-71
2023/10/21 04:43:47;;;;;;;3.53;1.63;;;7.00;99.90;;;;;;5007893;28;20026;-69
2023/10/21 04:46:12;;;;;;;3.58;1.70;;;7.00;99.90;;;;;;5003200;28;20064;-71
2023/10/21 04:48:38;;;;;;;3.72;1.38;;;7.00;99.90;;;;;;4998755;28;20081;-69
2023/10/21 04:51:03;;;;;;;2.47;1.48;;;7.00;99.90;;;;;;5009633;28;20444;-69
2023/10/21 04:53:30;;;;;;;4.63;1.85;;;7.00;99.90;;;;;;5006884;28;20048;-71
2023/10/21 04:55:55;;;;;;;4.45;1.98;;;7.00;99.90;;;;;;5011663;28;20022;-69
2023/10/21 04:58:21;;;;;;;5.45;2.17;;;7.00;99.90;;;;;;5006237;28;20042;-68
2023/10/21 05:00:46;;;;;;;3.25;1.65;;;7.00;99.90;;;;;;5004917;28;20022;-69
2023/10/21 05:03:11;;;;;;;4.22;2.00;;;7.00;99.90;;;;;;5010832;28;20029;-69
2023/10/21 05:05:37;;;;;;;3.00;1.60;;;7.00;99.90;;;;;;5009231;28;20387;-69
2023/10/21 05:08:03;;;;;;;3.30;1.73;;;7.00;99.90;;;;;;5008802;28;20038;-69
2023/10/21 05:10:29;;;;;;;3.90;1.73;;;7.00;99.90;;;;;;5007943;28;20541;-69
2023/10/21 05:12:55;;;;;;;3.28;1.60;;;7.00;99.90;;;;;;5009186;28;20038;-69
2023/10/21 05:15:20;;;;;;;5.13;1.92;;;7.00;99.90;;;;;;5005121;28;20032;-70
2023/10/21 05:17:46;;;;;;;3.55;1.75;;;7.00;99.90;;;;;;5007944;28;20030;-69
2023/10/21 05:20:11;;;;;;;3.42;1.80;;;7.00;99.90;;;;;;5002466;28;20426;-69
2023/10/21 05:22:37;;;;;;;4.10;1.90;;;7.10;99.90;;;;;;5005338;28;20101;-69
2023/10/21 05:25:03;;;;;;;4.55;1.50;;;7.10;99.90;;;;;;5006177;28;20058;-69
2023/10/21 05:27:29;;;;;;;3.70;1.48;;;7.10;99.90;;;;;;5006911;28;20030;-69
2023/10/21 05:29:54;;;;;;;2.42;1.35;;;7.10;99.90;;;;;;5010935;28;20088;-68
2023/10/21 05:32:19;;;;;;;3.22;1.38;;;7.10;99.90;;;;;;5009967;28;20296;-69
2023/10/21 05:34:45;;;;;;;3.92;1.67;;;7.10;99.90;;;;;;5011604;28;20037;-69
2023/10/21 05:37:10;;;;;;;3.95;1.80;;;7.10;99.90;;;;;;5008264;28;20426;-68
2023/10/21 05:39:36;;;;;;;3.88;1.48;;;7.10;99.90;;;;;;5010541;28;20033;-69
2023/10/21 05:42:03;;;;;;;4.63;2.13;;;7.10;99.90;;;;;;5003992;28;20049;-70
2023/10/21 05:44:29;;;;;;;3.13;1.23;;;7.10;99.90;;;;;;5012070;28;20034;-70
2023/10/21 05:46:54;;;;;;;2.60;1.27;;;7.10;99.90;;;;;;5011590;28;20038;-68
2023/10/21 05:49:21;;;;;;;3.15;1.48;;;7.10;99.90;;;;;;5008538;28;20033;-69
2023/10/21 05:51:47;;;;;;;4.20;1.38;;;7.10;99.90;;;;;;5003199;28;20031;-68
2023/10/21 05:54:13;;;;;;;4.28;1.92;;;7.20;99.90;;;;;;5004942;28;20161;-70
2023/10/21 05:56:38;;;;;;;4.38;1.90;;;7.10;99.90;;;;;;5005031;28;20204;-70
2023/10/21 05:59:04;;;;;;;4.18;1.85;;;7.20;99.90;;;;;;5005759;28;20046;-69
2023/10/21 06:01:30;;;;;;;4.55;1.77;;;7.20;99.90;;;;;;5009268;28;20387;-69
2023/10/21 06:03:55;;;;;;;2.85;1.67;;;7.20;99.90;;;;;;5025193;28;20034;-70
2023/10/21 06:06:22;;;;;;;4.88;1.92;;;7.20;99.90;;;;;;5001328;28;20176;-70
2023/10/21 06:08:48;;;;;;;2.45;1.10;;;7.20;99.90;;;;;;5008512;28;20147;-69
2023/10/21 06:11:13;;;;;;;2.63;1.50;;;7.20;99.90;;;;;;5002960;28;20069;-69
2023/10/21 06:13:39;;;;;;;3.38;1.70;;;7.20;99.90;;;;;;5003532;28;20463;-69
2023/10/21 06:16:05;;;;;;;3.42;1.67;;;7.30;99.90;;;;;;5003443;28;20065;-69
2023/10/21 06:18:31;;;;;;;3.63;1.67;;;7.30;99.90;;;;;;5007783;28;20053;-68
2023/10/21 06:20:56;;;;;;;5.60;1.70;;;7.30;99.90;;;;;;5008076;28;20030;-68
2023/10/21 06:23:22;;;;;;;4.57;1.95;;;7.30;99.90;;;;;;5003091;28;20061;-73
2023/10/21 06:25:47;;;;;;;2.22;1.20;;;7.30;99.90;;;;;;5003256;28;20046;-68
2023/10/21 06:28:13;;;;;;;4.43;2.10;;;7.40;99.90;;;;;;5000766;28;20389;-67
2023/10/21 06:30:41;;;;;;;3.40;1.67;;;7.40;99.90;;;;;;5007578;28;20072;-69
2023/10/21 06:33:09;;;;;;;3.67;1.77;;;7.40;99.90;;;;;;5010377;28;20168;-68
2023/10/21 06:35:36;;;;;;;3.05;1.52;;;7.40;99.90;;;;;;5002938;28;20026;-73
2023/10/21 06:38:02;;;;;;;4.25;1.95;;;7.40;99.90;;;;;;5004635;28;20087;-66
2023/10/21 06:40:27;;;;;;;3.22;1.60;;;7.50;99.90;;;;;;4997736;28;20710;-66
2023/10/21 06:42:53;;;;;;;2.85;1.67;;;7.50;99.90;;;;;;5003606;28;20061;-66
2023/10/21 06:45:18;;;;;;;4.57;1.90;;;7.50;99.90;;;;;;5006502;28;20035;-67
2023/10/21 06:47:44;;;;;;;4.32;2.13;;;7.50;99.90;;;;;;5005206;28;20041;-66
2023/10/21 06:50:11;;;;;;;4.40;1.77;;;7.50;99.90;;;;;;5006455;28;20037;-66
2023/10/21 06:52:36;;;;;;;3.67;1.98;;;7.50;99.90;;;;;;5011594;28;20029;-67
2023/10/21 06:55:02;;;;;;;2.33;1.15;;;7.60;99.90;;;;;;5003422;28;20038;-70
2023/10/21 06:57:28;;;;;;;3.05;1.67;;;7.60;99.90;;;;;;5002559;28;20383;-67
2023/10/21 06:59:53;;;;;;;3.15;1.30;;;7.60;99.90;;;;;;5002649;28;20474;-68
2023/10/21 07:02:18;;;;;;;4.15;1.85;;;7.60;99.90;;;;;;5008229;28;20033;-68
2023/10/21 07:04:44;;;;;;;2.60;1.38;;;7.60;99.90;;;;;;5010836;28;20030;-67
2023/10/21 07:07:13;;;;;;;3.85;1.52;;;7.60;99.90;;;;;;5009043;28;20057;-66
2023/10/21 07:09:38;;;;;;;4.18;1.98;;;7.70;99.90;;;;;;4995953;28;20070;-67
2023/10/21 07:12:04;;;;;;;4.20;1.75;;;7.70;99.90;;;;;;5004293;28;20459;-66
2023/10/21 07:14:30;;;;;;;3.08;1.85;;;7.70;99.90;;;;;;5006910;28;21196;-66
2023/10/21 07:16:56;;;;;;;3.53;1.48;;;7.70;99.90;;;;;;5005485;28;20038;-66
2023/10/21 07:19:22;;;;;;;3.78;1.77;;;7.80;99.90;;;;;;5023303;28;20080;-69
2023/10/21 07:21:51;;;;;;;4.05;1.88;;;7.70;99.90;;;;;;5006747;28;20038;-67
2023/10/21 07:24:16;;;;;;;6.10;2.08;;;7.70;99.90;;;;;;5007096;28;20022;-66
2023/10/21 07:26:42;;;;;;;4.07;1.83;;;7.70;99.90;;;;;;5002082;28;20064;-66
2023/10/21 07:29:08;;;;;;;3.22;1.80;;;7.80;99.90;;;;;;5000895;28;20113;-66
2023/10/21 07:31:34;;;;;;;3.20;1.52;;;7.80;99.90;;;;;;5007958;28;20116;-66
2023/10/21 07:34:00;;;;;;;2.47;1.35;;;7.80;99.90;;;;;;5006566;28;20034;-67
2023/10/21 07:36:25;;;;;;;4.15;1.60;;;7.80;99.90;;;;;;4999773;28;20438;-67
2023/10/21 07:38:52;;;;;;;4.50;2.08;;;7.80;99.90;;;;;;4999556;28;20035;-69
2023/10/21 07:41:19;;;;;;;2.00;1.40;;;7.80;99.90;;;;;;5021549;28;20058;-69
2023/10/21 07:43:45;;;;;;;2.08;1.23;;;7.90;99.90;;;;;;5005961;28;20498;-66
2023/10/21 07:46:10;;;;;;;3.65;1.90;;;7.90;99.90;;;;;;4999970;28;20041;-66
2023/10/21 07:48:35;;;;;;;3.30;1.67;;;8.00;99.90;;;;;;5011562;28;20120;-67
2023/10/21 07:51:01;;;;;;;4.32;2.10;;;8.00;99.90;;;;;;5010296;28;20038;-66
2023/10/21 07:53:26;;;;;;;3.72;1.52;;;8.10;99.90;;;;;;5006253;28;20030;-66
2023/10/21 07:55:53;;;;;;;2.80;1.45;;;8.10;99.90;;;;;;5006529;28;20490;-67
2023/10/21 07:58:18;;;;;;;3.92;1.40;;;8.10;99.90;;;;;;4999465;28;20387;-68
2023/10/21 08:00:44;;;;;;;2.60;1.13;;;8.20;99.90;;;;;;4999124;28;20085;-67
2023/10/21 08:03:09;;;;;;;2.65;1.30;;;8.30;99.90;;;;;;4998910;28;20045;-66
2023/10/21 08:05:35;;;;;;;2.85;1.33;;;8.40;99.90;;;;;;5005841;28;20033;-66
2023/10/21 08:08:00;;;;;;;2.85;1.27;;;8.40;99.90;;;;;;4998738;28;20113;-67
2023/10/21 08:10:26;;;;;;;1.98;1.27;;;8.50;99.90;;;;;;4999894;28;20111;-66
2023/10/21 08:12:51;;;;;;;2.60;1.33;;;8.50;99.90;;;;;;4998283;28;20387;-67
2023/10/21 08:15:17;;;;;;;1.63;1.02;;;8.60;99.90;;;;;;4997069;28;20049;-66
2023/10/21 08:17:43;;;;;;;2.72;1.30;;;8.60;99.90;;;;;;5006329;28;20084;-68
2023/10/21 08:20:09;;;;;;;3.03;1.30;;;8.50;99.90;;;;;;5000423;28;20073;-67
2023/10/21 08:22:35;;;;;;;1.65;0.77;;;8.50;99.90;;;;;;5004546;28;20400;-67
2023/10/21 08:25:01;;;;;;;1.70;1.10;;;8.60;99.90;;;;;;5006382;28;20050;-67
2023/10/21 08:27:27;;;;;;;1.60;0.80;;;8.50;99.90;;;;;;5005055;28;20033;-66
2023/10/21 08:29:55;;;;;;;1.17;0.80;;;8.50;99.90;;;;;;5007435;28;20034;-67
2023/10/21 08:32:21;;;;;;;1.42;1.10;;;8.50;99.90;;;;;;5005632;28;20030;-66
2023/10/21 08:34:46;;;;;;;1.73;1.00;;;8.50;99.90;;;;;;5007575;28;20068;-67
2023/10/21 08:37:12;;;;;;;1.40;0.75;;;8.60;99.90;;;;;;5002517;28;20041;-67
2023/10/21 08:39:37;;;;;;;1.15;0.60;;;8.60;99.90;;;;;;5007656;28;20389;-67
2023/10/21 08:42:05;;;;;;;1.27;0.75;;;8.50;99.90;;;;;;5001440;28;20243;-66
2023/10/21 08:44:31;;;;;;;1.48;1.00;;;8.50;99.90;;;;;;5005737;28;20037;-68
2023/10/21 08:46:58;;;;;;;1.00;0.60;;;8.60;99.90;;;;;;5005848;28;20078;-66
2023/10/21 08:49:24;;;;;;;1.30;0.77;;;8.60;99.90;;;;;;5007760;28;20116;-68
2023/10/21 08:51:52;;;;;;;1.38;0.77;;;8.60;99.90;;;;;;5004888;28;20117;-68
2023/10/21 08:54:19;;;;;;;1.35;0.73;;;8.50;99.90;;;;;;5002519;28;20129;-67
2023/10/21 08:56:45;;;;;;;0.98;0.80;;;8.60;99.90;;;;;;4998799;28;20125;-69
2023/10/21 08:59:12;;;;;;;1.20;0.70;;;8.60;99.90;;;;;;5002860;28;20038;-68
2023/10/21 09:01:38;;;;;;;0.77;0.47;;;8.50;99.90;;;;;;4999337;28;20172;-66
2023/10/21 09:04:04;;;;;;;2.17;1.00;;;8.60;99.90;;;;;;5006428;28;20030;-67
2023/10/21 09:06:30;;;;;;;1.42;0.60;;;8.60;99.90;;;;;;5007737;28;20486;-67
2023/10/21 09:08:56;;;;;;;0.82;0.50;;;8.60;99.90;;;;;;5002787;28;20046;-66
2023/10/21 09:11:27;;;;;;;1.20;0.57;;;8.70;99.90;;;;;;5007462;28;20034;-68
2023/10/21 09:13:56;;;;;;;;;;;8.70;99.90;;;;;;5003193;28;20038;-67
2023/10/21 09:16:26;;;;;;;0.77;0.70;;;8.90;99.90;;;;;;5005131;28;19914;-66
2023/10/21 09:19:24;;;;;;;3.30;0.93;;;8.90;99.90;;;;;;5001359;28;20033;-66
2023/10/21 09:21:49;;;;;;;1.20;0.70;;;8.80;99.90;;;;;;4998664;28;20057;-67
2023/10/21 09:24:23;;;;;;;1.40;0.80;;;8.80;99.90;;;;;;5010611;28;20030;-67
2023/10/21 09:26:49;;;;;;;2.05;1.10;;;8.80;99.90;;;;;;4995457;28;20558;-68
2023/10/21 09:29:20;;;;;;;1.90;0.90;;;8.80;99.90;;;;;;5011530;28;20045;-66
2023/10/21 09:31:56;;;;;;;;;;;8.80;99.90;;;;;;5003314;28;20030;-67
2023/10/21 09:34:32;;;;;;;1.85;0.95;;;8.80;99.90;;;;;;5004566;28;19913;-67
2023/10/21 09:37:01;;;;;;;1.48;0.90;;;8.80;99.90;;;;;;4998686;28;20077;-66
2023/10/21 09:39:30;;;;;;;2.08;1.00;;;8.90;99.90;;;;;;5010482;28;20352;-67
2023/10/21 09:41:58;;;;;;;1.35;1.00;;;8.90;99.90;;;;;;5007675;28;20038;-67
2023/10/21 09:44:25;;;;;;;2.15;1.00;;;8.80;99.90;;;;;;5010622;28;20084;-67
2023/10/21 09:46:52;;;;;;;1.52;0.80;;;8.80;99.90;;;;;;5004735;28;20038;-67
2023/10/21 09:49:21;;;;;;;1.88;0.98;;;8.90;99.90;;;;;;5008596;28;20083;-67
2023/10/21 09:52:04;;;;;;;3.45;1.42;;;8.90;99.90;;;;;;5006297;28;20451;-67
2023/10/21 09:54:47;;;;;;;2.38;1.15;;;9.00;99.90;;;;;;4999471;28;20076;-66
2023/10/21 09:57:13;;;;;;;2.17;1.30;;;9.00;99.90;;;;;;5001647;28;20030;-66
2023/10/21 09:59:39;;;;;;;2.83;1.55;;;9.10;99.90;;;;;;5009075;28;20030;-66
2023/10/21 10:02:06;;;;;;;2.47;1.33;;;9.10;99.90;;;;;;5008011;28;20419;-68
2023/10/21 10:04:34;;;;;;;3.72;1.45;;;9.20;99.90;;;;;;5006109;28;20143;-66
2023/10/21 10:07:05;;;;;;;1.85;1.02;;;9.10;99.90;;;;;;5002069;28;20037;-66
2023/10/21 10:09:36;;;;;;;3.20;1.35;;;9.20;99.90;;;;;;5002630;28;20130;-67
2023/10/21 10:12:07;;;;;;;2.60;1.47;;;9.20;99.90;;;;;;4998242;28;20108;-67
2023/10/21 10:14:33;;;;;;;;;;;9.30;99.90;;;;;;4999431;28;20048;-67
2023/10/21 10:16:59;;;;;;;2.33;1.40;;;9.30;99.90;;;;;;5005678;28;19968;-68
2023/10/21 10:19:42;;;;;;;2.33;0.88;;;9.30;99.90;;;;;;5012020;28;20033;-67
2023/10/21 10:22:28;;;;;;;2.05;1.17;;;9.20;99.90;;;;;;5004160;28;20475;-67
2023/10/21 10:24:55;;;;;;;2.40;1.38;;;9.30;99.90;;;;;;5008037;28;20109;-66
2023/10/21 10:27:35;;;;;;;2.53;1.35;;;9.30;99.90;;;;;;5001681;28;20033;-66
2023/10/21 10:30:01;;;;;;;1.75;1.02;;;9.40;99.90;;;;;;5007880;28;20073;-67
2023/10/21 10:32:30;;;;;;;1.75;1.33;;;9.40;99.90;;;;;;5003862;28;20061;-65
2023/10/21 10:34:57;;;;;;;1.85;1.30;;;9.40;99.90;;;;;;4997260;28;20033;-68
2023/10/21 10:37:34;;;;;;;2.40;1.20;;;9.50;99.90;;;;;;4999318;28;20041;-68
2023/10/21 10:40:05;;;;;;;2.13;1.00;;;9.60;99.90;;;;;;5000933;28;20032;-68
2023/10/21 10:42:34;;;;;;;2.78;1.30;;;9.60;99.90;;;;;;4996727;28;20029;-67
2023/10/21 10:45:00;;;;;;;2.50;1.33;;;9.70;99.90;;;;;;5005885;28;20034;-68
2023/10/21 10:47:28;;;;;;;2.80;1.27;;;9.80;99.90;;;;;;5006054;28;20034;-69
2023/10/21 10:49:58;;;;;;;2.10;1.17;;;9.80;99.90;;;;;;5009138;28;20026;-67
2023/10/21 10:52:33;;;;;;;2.15;1.10;;;9.80;99.90;;;;;;5003942;28;20041;-71
2023/10/21 10:54:59;;;;;;;2.58;1.50;;;9.80;99.90;;;;;;4996974;28;20038;-69
2023/10/21 10:57:25;;;;;;;2.85;1.33;;;9.80;99.90;;;;;;5005260;28;20513;-68
2023/10/21 10:59:51;;;;;;;2.53;1.30;;;9.80;99.90;;;;;;5008118;28;20042;-68
2023/10/21 11:02:19;;;;;;;2.92;1.45;;;9.90;99.90;;;;;;5004670;28;20430;-67
2023/10/21 11:04:49;;;;;;;6.97;2.92;;;9.90;99.90;;;;;;5005974;28;20071;-71
2023/10/21 11:07:21;;;;;;;5.22;2.22;;;9.90;99.90;;;;;;5006130;28;20041;-68
2023/10/21 11:09:46;;;;;;;2.70;1.63;;;10.00;99.90;;;;;;5005615;28;20049;-68
2023/10/21 11:12:14;;;;;;;1.83;0.88;;;10.00;99.90;;;;;;4995635;28;20118;-69
2023/10/21 11:14:39;;;;;;;2.85;1.40;;;10.10;99.90;;;;;;5003604;28;20045;-67
2023/10/21 11:17:05;;;;;;;2.63;1.40;;;10.20;99.90;;;;;;5004403;28;20065;-67
2023/10/21 11:19:31;;;;;;;2.88;1.45;;;10.30;99.90;;;;;;5006310;28;20470;-69
2023/10/21 11:21:57;;;;;;;5.22;2.00;;;10.50;99.90;;;;;;5001015;28;20064;-69
2023/10/21 11:24:25;;;;;;;3.50;2.08;;;10.70;99.90;;;;;;5008163;28;20419;-68
2023/10/21 11:26:52;;;;;;;4.10;2.25;;;11.00;99.90;;;;;;5003334;28;20453;-70
2023/10/21 11:29:18;;;;;;;4.65;2.35;;;11.50;99.90;;;;;;5007835;28;20034;-69
2023/10/21 11:31:45;;;;;;;3.25;1.73;;;11.50;99.90;;;;;;5003814;28;20034;-69
2023/10/21 11:34:15;;;;;;;3.63;1.83;;;11.50;99.90;;;;;;5002635;28;20044;-69
2023/10/21 11:36:44;;;;;;;4.28;1.92;;;11.60;99.90;;;;;;5001688;28;20199;-69
2023/10/21 11:39:15;;;;;;;2.78;1.52;;;11.50;99.90;;;;;;5000177;28;20034;-69
2023/10/21 11:41:48;;;;;;;2.92;1.40;;;11.60;99.90;;;;;;5005942;28;20034;-67
2023/10/21 11:44:23;;;;;;;2.65;1.63;;;11.60;99.90;;;;;;5006032;28;20029;-68
2023/10/21 11:46:49;;;;;;;3.58;1.92;;;11.80;99.90;;;;;;5009117;28;20034;-67
2023/10/21 11:49:15;;;;;;;2.40;1.30;;;11.70;99.90;;;;;;5009743;28;20022;-68
2023/10/21 11:51:49;;;;;;;2.30;1.20;;;11.80;99.90;;;;;;5000824;28;20474;-68
2023/10/21 11:54:39;;;;;;;4.53;2.00;;;12.00;99.90;;;;;;5004522;28;20031;-66
2023/10/21 12:03:45;;;;;;;3.85;1.50;;;12.10;99.90;;;;;;5006693;28;20041;-68
2023/10/21 12:05:47;;;;;;;3.03;1.50;;;12.40;99.90;;;;;;5007448;28;20372;-67
2023/10/21 12:09:23;;;;;;;2.20;1.25;;;12.50;99.90;;;;;;5004401;28;20069;-68
2023/10/21 12:11:41;;;;;;;1.98;1.45;;;12.90;99.90;;;;;;5013656;28;20042;-68
2023/10/21 12:19:24;;;;;;;2.80;1.58;;;13.70;98.50;;;;;;4999870;28;20030;-68
2023/10/21 12:32:52;;;;;;;2.53;1.30;;;13.80;97.90;;;;;;5008081;28;20470;-72
2023/10/21 12:35:47;;;;;;;2.42;1.17;;;14.10;98.00;;;;;;5007249;28;20056;-68
2023/10/21 12:38:23;;;;;;;2.13;1.30;;;14.30;97.80;;;;;;5015899;28;20422;-72
2023/10/21 12:43:35;;;;;;;2.08;1.23;;;14.70;96.70;;;;;;5004907;28;20036;-67
2023/10/21 12:46:20;;;;;;;2.78;1.17;;;14.60;96.60;;;;;;4997435;28;20038;-69
2023/10/21 12:48:51;;;;;;;2.30;1.35;;;14.60;97.20;;;;;;5002987;28;20036;-68
2023/10/21 12:51:16;;;;;;;2.30;1.27;;;14.50;97.50;;;;;;5007993;28;20044;-67
2023/10/21 12:53:43;;;;;;;4.07;1.23;;;14.30;97.70;;;;;;4998691;28;20029;-69
2023/10/21 12:56:09;;;;;;;2.00;1.15;;;14.10;98.00;;;;;;5008911;28;20052;-69
2023/10/21 12:58:34;;;;;;;1.42;0.90;;;14.10;98.30;;;;;;5002300;28;20041;-67
2023/10/21 13:01:00;;;;;;;2.95;1.58;;;13.90;98.40;;;;;;5003886;28;20030;-67
2023/10/21 13:03:26;;;;;;;2.17;1.30;;;13.80;98.50;;;;;;5003677;28;20048;-67
2023/10/21 13:05:52;;;;;;;2.50;1.30;;;13.70;98.90;;;;;;5006223;28;20052;-67
2023/10/21 13:08:18;;;;;;;2.15;1.10;;;13.70;99.00;;;;;;5001102;28;20030;-68
2023/10/21 13:10:44;;;;;;;2.88;1.35;;;13.90;99.50;;;;;;5005905;28;20038;-70
2023/10/21 13:13:11;;;;;;;1.70;1.10;;;14.00;99.50;;;;;;4949073;28;20648;-68
2023/10/21 13:15:37;;;;;;;2.45;1.33;;;14.20;99.00;;;;;;4999764;28;20376;-68
2023/10/21 13:18:05;;;;;;;1.70;0.98;;;14.40;99.20;;;;;;4999833;28;20049;-68
2023/10/21 13:20:31;;;;;;;2.45;1.20;;;14.50;98.60;;;;;;5001954;28;20474;-69